createdAt,value
2019-05-22T00:01:45.985Z,17.43
2019-05-22T00:04:15.372Z,17.40
2019-05-22T00:06:47.972Z,17.38
2019-05-22T00:09:20.478Z,17.35
2019-05-22T00:11:49.701Z,17.32
2019-05-22T00:14:17.495Z,17.30
2019-05-22T00:16:47.017Z,17.27
2019-05-22T00:19:15.190Z,17.26
2019-05-22T00:21:42.971Z,17.24
2019-05-22T00:24:12.367Z,17.23
2019-05-22T00:26:41.856Z,17.23
2019-05-22T00:29:10.711Z,17.22
2019-05-22T00:31:38.479Z,17.21
2019-05-22T00:34:06.208Z,17.20
2019-05-22T00:36:34.007Z,17.18
2019-05-22T00:39:03.453Z,17.19
2019-05-22T00:41:32.834Z,17.20
2019-05-22T00:44:01.993Z,17.19
2019-05-22T00:46:30.103Z,17.21
2019-05-22T00:48:58.613Z,17.24
2019-05-22T00:51:36.913Z,17.25
2019-05-22T00:54:25.595Z,17.26
2019-05-22T00:56:58.081Z,17.27
2019-05-22T00:59:36.440Z,17.27
2019-05-22T01:02:11.606Z,17.28
2019-05-22T01:04:43.331Z,17.28
2019-05-22T01:07:21.749Z,17.28
2019-05-22T01:09:51.756Z,17.28
2019-05-22T01:12:27.139Z,17.30
2019-05-22T01:14:56.654Z,17.30
2019-05-22T01:17:25.151Z,17.30
2019-05-22T01:19:54.575Z,17.28
2019-05-22T01:22:23.913Z,17.27
2019-05-22T01:24:53.475Z,17.25
2019-05-22T01:27:23.269Z,17.23
2019-05-22T01:29:51.190Z,17.20
2019-05-22T01:32:23.065Z,17.20
2019-05-22T01:34:51.616Z,17.19
2019-05-22T01:37:19.370Z,17.17
2019-05-22T01:40:02.699Z,17.16
2019-05-22T01:42:32.679Z,17.14
2019-05-22T01:45:06.590Z,17.14
2019-05-22T01:47:42.558Z,17.14
2019-05-22T01:50:13.316Z,17.15
2019-05-22T01:52:42.022Z,17.15
2019-05-22T01:55:10.057Z,17.14
2019-05-22T01:57:38.892Z,17.12
2019-05-22T02:00:09.644Z,17.10
2019-05-22T02:02:37.645Z,17.08
2019-05-22T02:05:06.362Z,17.08
2019-05-22T02:07:34.372Z,17.05
2019-05-22T02:10:02.759Z,17.05
2019-05-22T02:12:36.394Z,17.05
2019-05-22T02:15:06.996Z,17.05
2019-05-22T02:17:35.506Z,17.03
2019-05-22T02:20:05.526Z,17.01
2019-05-22T02:22:34.143Z,16.98
2019-05-22T02:25:02.758Z,16.95
2019-05-22T02:27:31.784Z,16.92
2019-05-22T02:30:02.350Z,16.90
2019-05-22T02:32:31.699Z,16.88
2019-05-22T02:35:00.926Z,16.87
2019-05-22T02:37:30.086Z,16.83
2019-05-22T02:39:57.805Z,16.79
2019-05-22T02:42:26.921Z,16.75
2019-05-22T02:44:55.701Z,16.71
2019-05-22T02:47:25.261Z,16.68
2019-05-22T02:49:53.074Z,16.63
2019-05-22T02:52:22.104Z,16.61
2019-05-22T02:54:49.928Z,16.58
2019-05-22T02:57:17.914Z,16.54
2019-05-22T02:59:45.701Z,16.49
2019-05-22T03:02:14.239Z,16.44
2019-05-22T03:05:00.560Z,16.37
2019-05-22T03:07:28.734Z,16.32
2019-05-22T03:09:56.834Z,16.26
2019-05-22T03:12:26.435Z,16.20
2019-05-22T03:14:54.745Z,16.14
2019-05-22T03:17:28.051Z,16.09
2019-05-22T03:19:56.833Z,15.83
2019-05-22T03:22:39.965Z,16.01
2019-05-22T03:25:09.558Z,15.96
2019-05-22T03:27:47.223Z,15.91
2019-05-22T03:30:17.767Z,15.88
2019-05-22T03:32:47.878Z,15.84
2019-05-22T03:35:15.649Z,15.82
2019-05-22T03:37:43.405Z,15.80
2019-05-22T03:40:11.481Z,15.78
2019-05-22T03:42:39.295Z,15.74
2019-05-22T03:45:07.760Z,15.70
2019-05-22T03:47:36.210Z,15.68
2019-05-22T03:50:06.274Z,15.65
2019-05-22T03:52:34.814Z,15.61
2019-05-22T03:55:02.554Z,15.59
2019-05-22T03:57:30.970Z,15.54
2019-05-22T03:59:58.774Z,15.51
2019-05-22T04:02:26.508Z,15.49
2019-05-22T04:04:54.839Z,15.47
2019-05-22T04:07:24.203Z,15.44
2019-05-22T04:09:52.853Z,15.44
2019-05-22T04:12:20.766Z,15.42
2019-05-22T04:14:49.022Z,15.42
2019-05-22T04:17:17.674Z,15.42
2019-05-22T04:19:50.537Z,15.41
2019-05-22T04:22:15.300Z,15.42
2019-05-22T04:24:43.219Z,15.42
2019-05-22T04:27:12.629Z,15.43
2019-05-22T04:29:40.887Z,15.42
2019-05-22T04:32:12.899Z,15.42
2019-05-22T04:34:41.782Z,15.42
2019-05-22T04:37:10.773Z,15.42
2019-05-22T04:39:38.973Z,15.42
2019-05-22T04:42:07.836Z,15.42
2019-05-22T04:44:36.163Z,15.40
2019-05-22T04:47:03.968Z,15.41
2019-05-22T04:49:31.808Z,15.43
2019-05-22T04:51:59.744Z,15.46
2019-05-22T04:54:27.499Z,15.48
2019-05-22T04:56:55.250Z,15.47
2019-05-22T04:59:24.138Z,15.47
2019-05-22T05:01:51.883Z,15.46
2019-05-22T05:04:19.699Z,15.44
2019-05-22T05:06:48.059Z,15.44
2019-05-22T05:09:16.301Z,15.42
2019-05-22T05:11:44.212Z,15.40
2019-05-22T05:14:12.070Z,15.37
2019-05-22T05:16:39.829Z,15.34
2019-05-22T05:19:07.582Z,15.31
2019-05-22T05:21:35.367Z,15.29
2019-05-22T05:24:03.394Z,15.28
2019-05-22T05:26:32.783Z,15.28
2019-05-22T05:29:00.959Z,15.28
2019-05-22T05:31:28.703Z,15.30
2019-05-22T05:34:10.549Z,15.31
2019-05-22T05:36:38.441Z,15.29
2019-05-22T05:39:08.316Z,15.27
2019-05-22T05:41:36.106Z,15.25
2019-05-22T05:44:04.630Z,15.20
2019-05-22T05:46:32.353Z,15.17
2019-05-22T05:49:01.151Z,15.12
2019-05-22T05:51:31.305Z,15.09
2019-05-22T05:54:01.291Z,15.06
2019-05-22T05:56:30.367Z,15.03
2019-05-22T05:58:59.598Z,15.00
2019-05-22T06:01:31.997Z,15.00
2019-05-22T06:04:00.521Z,15.01
2019-05-22T06:06:31.391Z,15.01
2019-05-22T06:08:59.682Z,15.01
2019-05-22T06:11:35.750Z,15.01
2019-05-22T06:14:04.120Z,15.02
2019-05-22T06:16:50.229Z,15.01
2019-05-22T06:19:18.364Z,15.01
2019-05-22T06:21:47.994Z,14.99
2019-05-22T06:24:27.821Z,14.99
2019-05-22T06:26:57.979Z,14.97
2019-05-22T06:29:28.188Z,14.95
2019-05-22T06:32:04.726Z,14.94
2019-05-22T06:34:32.457Z,14.94
2019-05-22T06:37:02.127Z,14.95
2019-05-22T06:39:30.383Z,14.97
2019-05-22T06:41:58.289Z,14.94
2019-05-22T06:44:28.559Z,14.89
2019-05-22T06:46:57.163Z,14.86
2019-05-22T06:49:32.494Z,14.85
2019-05-22T06:52:00.254Z,14.83
2019-05-22T06:54:28.077Z,14.84
2019-05-22T06:56:55.878Z,14.64
2019-05-22T06:59:23.588Z,14.84
2019-05-22T07:01:59.322Z,14.85
2019-05-22T07:04:21.313Z,14.83
2019-05-22T07:06:49.134Z,14.84
2019-05-22T07:09:18.559Z,14.85
2019-05-22T07:11:47.114Z,14.88
2019-05-22T07:14:15.709Z,14.87
2019-05-22T07:16:43.572Z,14.87
2019-05-22T07:19:12.890Z,14.86
2019-05-22T07:21:40.872Z,14.85
2019-05-22T07:24:08.665Z,14.83
2019-05-22T07:26:37.298Z,14.83
2019-05-22T07:29:05.293Z,14.82
2019-05-22T07:31:33.315Z,14.83
2019-05-22T07:34:01.131Z,14.83
2019-05-22T07:36:29.452Z,14.81
2019-05-22T07:38:58.258Z,14.80
2019-05-22T07:41:26.007Z,14.80
2019-05-22T07:43:53.817Z,14.78
2019-05-22T07:46:21.541Z,14.78
2019-05-22T07:48:49.300Z,14.75
2019-05-22T07:51:17.519Z,14.76
2019-05-22T07:53:45.310Z,14.77
2019-05-22T07:56:13.942Z,14.78
2019-05-22T07:58:42.052Z,14.77
2019-05-22T08:01:10.718Z,14.79
2019-05-22T08:03:38.639Z,14.80
2019-05-22T08:06:06.959Z,14.82
2019-05-22T08:08:36.526Z,14.86
2019-05-22T08:11:05.695Z,14.86
2019-05-22T08:13:33.650Z,14.88
2019-05-22T08:16:01.801Z,14.88
2019-05-22T08:18:31.525Z,14.89
2019-05-22T08:20:59.386Z,14.90
2019-05-22T08:23:27.170Z,14.91
2019-05-22T08:25:56.115Z,14.92
2019-05-22T08:28:24.843Z,14.90
2019-05-22T08:30:52.622Z,14.89
2019-05-22T08:33:20.959Z,14.87
2019-05-22T08:35:49.193Z,14.85
2019-05-22T08:38:17.057Z,14.85
2019-05-22T08:40:45.447Z,14.85
2019-05-22T08:43:13.295Z,14.84
2019-05-22T08:45:41.081Z,14.81
2019-05-22T08:48:09.306Z,14.81
2019-05-22T08:50:37.832Z,14.78
2019-05-22T08:53:06.357Z,14.76
2019-05-22T08:55:35.524Z,14.74
2019-05-22T08:58:04.290Z,14.73
2019-05-22T09:00:32.734Z,14.73
2019-05-22T09:03:01.478Z,14.75
2019-05-22T09:05:29.235Z,14.79
2019-05-22T09:07:57.013Z,14.83
2019-05-22T09:10:26.069Z,14.85
2019-05-22T09:12:54.188Z,14.85
2019-05-22T09:15:22.247Z,14.85
2019-05-22T09:17:50.098Z,14.86
2019-05-22T09:20:18.390Z,14.87
2019-05-22T09:22:47.165Z,14.93
2019-05-22T09:25:16.442Z,14.96
2019-05-22T09:27:44.996Z,15.00
2019-05-22T09:30:13.219Z,15.05
2019-05-22T09:32:40.958Z,15.08
2019-05-22T09:35:08.713Z,15.13
2019-05-22T09:37:36.644Z,15.15
2019-05-22T09:40:05.452Z,15.17
2019-05-22T09:42:34.515Z,15.20
2019-05-22T09:45:03.738Z,15.22
2019-05-22T09:47:31.562Z,15.22
2019-05-22T09:49:59.969Z,15.20
2019-05-22T09:52:28.163Z,15.18
2019-05-22T09:54:56.275Z,15.17
2019-05-22T09:57:24.189Z,15.15
2019-05-22T09:59:51.972Z,15.13
2019-05-22T10:02:19.786Z,15.12
2019-05-22T10:04:47.955Z,15.15
2019-05-22T10:07:15.806Z,15.16
2019-05-22T10:09:44.221Z,15.19
2019-05-22T10:12:12.133Z,15.22
2019-05-22T10:14:41.073Z,15.27
2019-05-22T10:17:10.237Z,15.29
2019-05-22T10:19:38.555Z,15.33
2019-05-22T10:22:07.978Z,15.35
2019-05-22T10:24:36.109Z,15.34
2019-05-22T10:27:05.532Z,15.34
2019-05-22T10:29:33.796Z,15.39
2019-05-22T10:32:01.515Z,15.40
2019-05-22T10:34:29.326Z,15.40
2019-05-22T10:36:57.106Z,15.37
2019-05-22T10:39:25.915Z,15.33
2019-05-22T10:41:53.666Z,15.29
2019-05-22T10:44:22.482Z,15.26
2019-05-22T10:46:50.236Z,15.25
2019-05-22T10:49:18.002Z,15.24
2019-05-22T10:51:46.278Z,15.25
2019-05-22T10:54:14.283Z,15.22
2019-05-22T10:56:42.032Z,15.20
2019-05-22T10:59:10.001Z,15.19
2019-05-22T11:01:37.855Z,15.14
2019-05-22T11:04:05.620Z,15.11
2019-05-22T11:06:33.480Z,15.09
2019-05-22T11:09:01.575Z,15.08
2019-05-22T11:11:29.429Z,15.08
2019-05-22T11:14:01.786Z,15.09
2019-05-22T11:16:26.997Z,15.12
2019-05-22T11:18:55.130Z,15.09
2019-05-22T11:21:22.923Z,15.07
2019-05-22T11:23:52.849Z,15.04
2019-05-22T11:26:20.154Z,15.05
2019-05-22T11:28:48.001Z,15.06
2019-05-22T11:31:16.244Z,15.06
2019-05-22T11:33:44.481Z,15.02
2019-05-22T11:36:13.252Z,14.99
2019-05-22T11:38:41.082Z,14.95
2019-05-22T11:41:08.829Z,14.88
2019-05-22T11:43:36.639Z,14.82
2019-05-22T11:46:05.745Z,14.66
2019-05-22T11:48:33.508Z,14.75
2019-05-22T11:51:01.481Z,14.76
2019-05-22T11:53:29.253Z,14.77
2019-05-22T11:55:56.998Z,14.82
2019-05-22T11:58:24.780Z,14.82
2019-05-22T12:00:52.561Z,14.83
2019-05-22T12:03:20.491Z,14.84
2019-05-22T12:05:48.271Z,14.83
2019-05-22T12:08:16.529Z,14.83
2019-05-22T12:10:44.860Z,14.85
2019-05-22T12:13:12.759Z,14.83
2019-05-22T12:15:40.691Z,14.84
2019-05-22T12:18:08.898Z,14.85
2019-05-22T12:20:37.197Z,14.87
2019-05-22T12:23:04.947Z,14.93
2019-05-22T12:25:32.690Z,14.92
2019-05-22T12:28:00.479Z,14.89
2019-05-22T12:30:28.225Z,14.84
2019-05-22T12:32:56.303Z,14.77
2019-05-22T12:35:24.227Z,14.71
2019-05-22T12:37:51.973Z,14.63
2019-05-22T12:40:20.289Z,14.60
2019-05-22T12:42:48.514Z,14.57
2019-05-22T12:45:16.346Z,14.55
2019-05-22T12:47:45.481Z,14.51
2019-05-22T12:50:15.604Z,14.44
2019-05-22T12:52:44.226Z,14.39
2019-05-22T12:55:12.061Z,14.36
2019-05-22T12:57:39.868Z,14.30
2019-05-22T13:00:08.492Z,14.24
2019-05-22T13:02:36.483Z,14.17
2019-05-22T13:05:05.368Z,14.11
2019-05-22T13:07:33.611Z,14.05
2019-05-22T13:10:01.751Z,14.04
2019-05-22T13:12:30.003Z,14.02
2019-05-22T13:15:08.938Z,14.00
2019-05-22T13:17:27.834Z,13.99
2019-05-22T13:19:55.737Z,14.00
2019-05-22T13:22:24.249Z,14.01
2019-05-22T13:24:52.009Z,14.03
2019-05-22T13:27:20.059Z,14.04
2019-05-22T13:29:48.494Z,14.03
2019-05-22T13:32:16.268Z,14.02
2019-05-22T13:34:44.126Z,13.98
2019-05-22T13:37:11.898Z,13.96
2019-05-22T13:39:39.748Z,13.94
2019-05-22T13:42:07.529Z,13.94
2019-05-22T13:44:35.444Z,13.95
2019-05-22T13:47:04.422Z,13.95
2019-05-22T13:49:34.354Z,13.95
2019-05-22T13:52:02.123Z,13.93
2019-05-22T13:54:30.426Z,13.90
2019-05-22T13:56:58.714Z,13.89
2019-05-22T13:59:27.108Z,13.87
2019-05-22T14:01:54.937Z,13.86
2019-05-22T14:04:22.730Z,13.83
2019-05-22T14:06:50.610Z,13.83
2019-05-22T14:09:21.473Z,13.83
2019-05-22T14:11:50.121Z,13.84
2019-05-22T14:14:17.950Z,13.85
2019-05-22T14:16:48.935Z,13.83
2019-05-22T14:19:15.155Z,13.86
2019-05-22T14:21:50.055Z,13.87
2019-05-22T14:24:12.328Z,13.87
2019-05-22T14:26:40.144Z,13.89
2019-05-22T14:29:07.989Z,13.90
2019-05-22T14:31:35.745Z,13.89
2019-05-22T14:34:04.515Z,13.87
2019-05-22T14:36:32.470Z,13.88
2019-05-22T14:39:01.825Z,13.88
2019-05-22T14:41:29.615Z,13.87
2019-05-22T14:43:57.383Z,13.84
2019-05-22T14:46:25.152Z,13.81
2019-05-22T14:48:52.944Z,13.80
2019-05-22T14:51:22.678Z,13.77
2019-05-22T14:53:52.308Z,13.75
2019-05-22T14:56:20.110Z,13.73
2019-05-22T14:58:48.067Z,13.70
2019-05-22T15:01:15.940Z,13.68
2019-05-22T15:03:43.795Z,13.66
2019-05-22T15:06:11.718Z,13.65
2019-05-22T15:08:39.479Z,13.65
2019-05-22T15:11:07.352Z,13.64
2019-05-22T15:13:35.861Z,13.64
2019-05-22T15:16:03.594Z,13.64
2019-05-22T15:18:32.350Z,13.64
2019-05-22T15:21:01.566Z,13.61
2019-05-22T15:23:31.228Z,13.59
2019-05-22T15:25:59.617Z,13.57
2019-05-22T15:28:27.382Z,13.54
2019-05-22T15:30:55.219Z,13.52
2019-05-22T15:33:23.011Z,13.52
2019-05-22T15:35:51.217Z,13.52
2019-05-22T15:38:19.258Z,13.51
2019-05-22T15:40:47.513Z,13.51
2019-05-22T15:43:15.731Z,13.52
2019-05-22T15:45:43.484Z,13.52
2019-05-22T15:48:13.996Z,13.54
2019-05-22T15:50:42.445Z,13.52
2019-05-22T15:53:14.891Z,13.53
2019-05-22T15:55:42.614Z,13.52
2019-05-22T15:58:10.528Z,13.51
2019-05-22T16:00:39.067Z,13.54
2019-05-22T16:03:13.851Z,13.55
2019-05-22T16:05:42.251Z,13.57
2019-05-22T16:08:10.171Z,13.60
2019-05-22T16:10:38.033Z,13.58
2019-05-22T16:13:05.836Z,13.61
2019-05-22T16:15:34.823Z,13.60
2019-05-22T16:18:11.744Z,13.63
2019-05-22T16:20:32.096Z,13.65
2019-05-22T16:22:59.855Z,13.65
2019-05-22T16:25:29.028Z,13.65
2019-05-22T16:27:56.777Z,13.65
2019-05-22T16:30:25.635Z,13.65
2019-05-22T16:32:53.685Z,13.65
2019-05-22T16:35:21.600Z,13.66
2019-05-22T16:37:49.355Z,13.67
2019-05-22T16:40:17.327Z,13.67
2019-05-22T16:42:45.083Z,13.68
2019-05-22T16:45:13.967Z,13.68
2019-05-22T16:47:41.884Z,13.68
2019-05-22T16:50:09.908Z,13.67
2019-05-22T16:52:37.657Z,13.65
2019-05-22T16:55:07.645Z,13.65
2019-05-22T16:57:36.030Z,13.65
2019-05-22T17:00:04.928Z,13.66
2019-05-22T17:02:33.541Z,13.67
2019-05-22T17:05:02.212Z,13.68
2019-05-22T17:07:30.420Z,13.68
2019-05-22T17:09:58.197Z,13.70
2019-05-22T17:12:26.317Z,13.70
2019-05-22T17:14:54.537Z,13.69
2019-05-22T17:17:22.367Z,13.68
2019-05-22T17:19:50.475Z,13.68
2019-05-22T17:22:18.226Z,13.66
2019-05-22T17:24:46.020Z,13.63
2019-05-22T17:27:15.439Z,13.62
2019-05-22T17:29:44.252Z,13.59
2019-05-22T17:32:12.710Z,13.59
2019-05-22T17:34:40.545Z,13.56
2019-05-22T17:37:10.703Z,13.57
2019-05-22T17:39:39.515Z,13.55
2019-05-22T17:42:08.056Z,13.55
2019-05-22T17:44:36.629Z,13.52
2019-05-22T17:47:06.740Z,13.50
2019-05-22T17:49:34.754Z,13.49
2019-05-22T17:52:03.442Z,13.48
2019-05-22T17:54:31.929Z,13.46
2019-05-22T17:56:59.901Z,13.43
2019-05-22T17:59:28.229Z,13.45
2019-05-22T18:01:56.033Z,13.45
2019-05-22T18:04:24.037Z,13.46
2019-05-22T18:06:52.242Z,13.46
2019-05-22T18:09:20.298Z,13.47
2019-05-22T18:11:48.086Z,13.49
2019-05-22T18:14:15.803Z,13.49
2019-05-22T18:16:43.611Z,13.50
2019-05-22T18:19:11.411Z,13.51
2019-05-22T18:21:40.036Z,13.51
2019-05-22T18:24:09.018Z,13.50
2019-05-22T18:26:36.766Z,13.49
2019-05-22T18:29:04.585Z,13.49
2019-05-22T18:31:32.556Z,13.47
2019-05-22T18:34:00.312Z,13.46
2019-05-22T18:36:28.061Z,13.45
2019-05-22T18:38:55.860Z,13.47
2019-05-22T18:41:23.604Z,13.47
2019-05-22T18:43:51.925Z,13.46
2019-05-22T18:46:19.705Z,13.45
2019-05-22T18:48:48.304Z,13.44
2019-05-22T18:51:16.704Z,13.42
2019-05-22T18:53:44.571Z,13.38
2019-05-22T18:56:13.420Z,13.36
2019-05-22T18:58:43.183Z,13.36
2019-05-22T19:01:10.968Z,13.33
2019-05-22T19:03:38.714Z,13.32
2019-05-22T19:06:06.489Z,13.31
2019-05-22T19:08:34.326Z,13.28
2019-05-22T19:11:04.195Z,13.27
2019-05-22T19:13:34.663Z,13.25
2019-05-22T19:16:02.412Z,13.24
2019-05-22T19:18:30.288Z,13.21
2019-05-22T19:20:57.967Z,13.20
2019-05-22T19:23:25.854Z,13.19
2019-05-22T19:25:53.601Z,13.15
2019-05-22T19:28:21.723Z,13.13
2019-05-22T19:30:49.591Z,13.09
2019-05-22T19:33:17.336Z,13.04
2019-05-22T19:35:45.095Z,12.98
2019-05-22T19:38:13.057Z,12.93
2019-05-22T19:40:40.904Z,12.90
2019-05-22T19:43:09.227Z,12.85
2019-05-22T19:45:37.023Z,12.81
2019-05-22T19:48:05.937Z,12.77
2019-05-22T19:50:34.866Z,12.73
2019-05-22T19:53:18.318Z,12.66
2019-05-22T19:55:33.525Z,12.61
2019-05-22T19:58:01.523Z,12.57
2019-05-22T20:00:31.832Z,12.52
2019-05-22T20:02:59.589Z,12.48
2019-05-22T20:05:27.335Z,12.46
2019-05-22T20:07:55.603Z,12.43
2019-05-22T20:10:23.345Z,12.40
2019-05-22T20:12:51.092Z,12.38
2019-05-22T20:15:19.247Z,12.33
2019-05-22T20:17:47.372Z,12.31
2019-05-22T20:20:15.966Z,12.27
2019-05-22T20:22:44.562Z,12.24
2019-05-22T20:25:12.837Z,12.21
2019-05-22T20:27:41.680Z,12.17
2019-05-22T20:30:10.412Z,12.13
2019-05-22T20:32:38.236Z,12.11
2019-05-22T20:35:07.220Z,12.08
2019-05-22T20:37:35.190Z,12.06
2019-05-22T20:40:04.115Z,12.02
2019-05-22T20:42:33.120Z,11.99
2019-05-22T20:45:01.650Z,11.97
2019-05-22T20:47:29.398Z,11.95
2019-05-22T20:49:57.432Z,11.93
2019-05-22T20:52:25.201Z,11.90
2019-05-22T20:54:53.798Z,11.87
2019-05-22T20:57:22.315Z,11.87
2019-05-22T20:59:50.428Z,11.84
2019-05-22T21:02:19.859Z,11.83
2019-05-22T21:04:48.037Z,11.83
2019-05-22T21:07:16.691Z,11.82
2019-05-22T21:09:44.448Z,11.83
2019-05-22T21:12:12.565Z,11.83
2019-05-22T21:14:41.085Z,11.84
2019-05-22T21:17:09.474Z,11.84
2019-05-22T21:19:37.677Z,11.86
2019-05-22T21:22:06.537Z,11.85
2019-05-22T21:24:36.428Z,11.86
2019-05-22T21:27:06.077Z,11.87
2019-05-22T21:29:33.950Z,11.88
2019-05-22T21:32:01.688Z,11.90
2019-05-22T21:34:29.917Z,11.90
2019-05-22T21:36:57.784Z,11.91
2019-05-22T21:39:25.893Z,11.91
2019-05-22T21:41:53.739Z,11.92
2019-05-22T21:44:21.550Z,11.92
2019-05-22T21:46:49.267Z,11.93
2019-05-22T21:49:18.687Z,11.92
2019-05-22T21:51:46.816Z,11.93
2019-05-22T21:54:14.744Z,11.93
2019-05-22T21:56:42.869Z,11.93
2019-05-22T21:59:11.022Z,11.93
2019-05-22T22:01:40.411Z,11.95
2019-05-22T22:04:09.910Z,11.95
2019-05-22T22:06:37.724Z,11.97
2019-05-22T22:09:07.568Z,11.98
2019-05-22T22:11:35.405Z,12.00
2019-05-22T22:14:03.210Z,12.01
2019-05-22T22:16:30.990Z,12.03
2019-05-22T22:18:59.921Z,12.04
2019-05-22T22:21:28.290Z,12.05
2019-05-22T22:23:56.174Z,12.07
2019-05-22T22:26:26.396Z,12.08
2019-05-22T22:28:53.534Z,12.09
2019-05-22T22:31:22.940Z,12.09
2019-05-22T22:33:52.313Z,12.12
2019-05-22T22:36:20.096Z,12.12
2019-05-22T22:38:48.815Z,12.13
2019-05-22T22:41:16.629Z,12.12
2019-05-22T22:43:45.077Z,12.13
2019-05-22T22:46:18.881Z,12.12
2019-05-22T22:48:48.482Z,11.91
2019-05-22T22:51:17.942Z,12.12
2019-05-22T22:53:45.685Z,12.11
2019-05-22T22:56:13.749Z,12.10
2019-05-22T22:58:42.713Z,12.10
2019-05-22T23:01:13.283Z,12.09
2019-05-22T23:03:41.019Z,12.08
2019-05-22T23:06:10.749Z,12.07
2019-05-22T23:08:39.745Z,12.07
2019-05-22T23:11:09.217Z,12.07
2019-05-22T23:13:37.379Z,12.05
2019-05-22T23:16:06.594Z,12.03
2019-05-22T23:18:43.624Z,12.03
2019-05-22T23:21:12.514Z,12.02
2019-05-22T23:23:40.944Z,12.00
2019-05-22T23:26:09.117Z,11.99
2019-05-22T23:28:40.652Z,11.96
2019-05-22T23:31:07.457Z,11.94
2019-05-22T23:33:37.796Z,11.91
2019-05-22T23:36:05.617Z,11.87
2019-05-22T23:38:33.835Z,11.81
2019-05-22T23:41:02.041Z,11.78
2019-05-22T23:43:29.741Z,11.73
2019-05-22T23:45:58.566Z,11.68
2019-05-22T23:48:27.982Z,11.64
2019-05-22T23:50:56.403Z,11.58
2019-05-22T23:53:25.219Z,11.52
2019-05-22T23:55:54.175Z,11.46
2019-05-22T23:58:23.062Z,11.39
